Greendale, Massachusetts
Current Conditions -  °F | °C
As of 12:54 PM on Saturday 25 Oct 2014 (Local Time) from KORH Reporting Station
Clear Clear  
Wind Chill: 57°   Ceiling: Unl
Heat Index: 57°   Visibility: 10mi
Dew Point: 37°   Wind: 16mph
Humidity: 47%   Direction: 290°WNW
Pressure: 29.7"   Gusts: 23mph
Location:  42.3148°N, 71.7961°W
Report Text: KORH 251654Z 29014G20KT 10SM CLR 14/03 A2970 RMK AO2 SLP060 T01390028
Loading
Personal Weather Stations






























Interactive Weather Map
Tropical Storm Tracking
New forecast layout! Learn more

10-Day Weather Forecast

Advertisements
Track Severe Weather on mobile